createdAt,value
2022-08-08T00:01:14.734Z,100.00
2022-08-08T00:03:54.142Z,100.00
2022-08-08T00:06:41.436Z,100.00
2022-08-08T00:09:43.802Z,100.00
2022-08-08T00:12:15.108Z,100.00
2022-08-08T00:15:06.238Z,100.00
2022-08-08T00:18:03.482Z,100.00
2022-08-08T00:20:49.415Z,100.00
2022-08-08T00:23:43.531Z,100.00
2022-08-08T00:26:32.792Z,100.00
2022-08-08T00:29:46.074Z,100.00
2022-08-08T00:32:33.882Z,100.00
2022-08-08T00:35:18.583Z,100.00
2022-08-08T00:38:07.593Z,100.00
2022-08-08T00:41:55.617Z,100.00
2022-08-08T00:44:27.590Z,100.00
2022-08-08T00:47:23.022Z,100.00
2022-08-08T00:50:09.196Z,100.00
2022-08-08T00:52:54.130Z,100.00
2022-08-08T00:56:09.397Z,100.00
2022-08-08T00:59:06.963Z,100.00
2022-08-08T01:02:01.822Z,100.00
2022-08-08T01:05:03.881Z,100.00
2022-08-08T01:07:55.350Z,100.00
2022-08-08T01:10:42.764Z,100.00
2022-08-08T01:13:52.790Z,100.00
2022-08-08T01:16:45.755Z,100.00
2022-08-08T01:19:52.253Z,100.00
2022-08-08T01:22:36.944Z,100.00
2022-08-08T01:25:09.329Z,100.00
2022-08-08T01:28:18.825Z,100.00
2022-08-08T01:31:10.495Z,100.00
2022-08-08T01:34:22.039Z,100.00
2022-08-08T01:37:21.822Z,100.00
2022-08-08T01:40:48.379Z,100.00
2022-08-08T01:43:39.793Z,100.00
2022-08-08T01:46:24.562Z,100.00
2022-08-08T01:49:22.876Z,100.00
2022-08-08T01:53:54.086Z,100.00
2022-08-08T01:56:28.679Z,100.00
2022-08-08T01:58:38.871Z,100.00
2022-08-08T02:01:24.587Z,100.00
2022-08-08T02:03:58.331Z,100.00
2022-08-08T02:06:43.379Z,100.00
2022-08-08T02:09:18.012Z,100.00
2022-08-08T02:11:58.900Z,100.00
2022-08-08T02:14:55.935Z,100.00
2022-08-08T02:17:36.545Z,100.00
2022-08-08T02:21:00.912Z,100.00
2022-08-08T02:23:35.126Z,100.00
2022-08-08T02:26:19.016Z,100.00
2022-08-08T02:29:04.063Z,100.00
2022-08-08T02:32:15.765Z,100.00
2022-08-08T02:35:12.026Z,100.00
2022-08-08T02:38:03.404Z,100.00
2022-08-08T02:41:00.763Z,100.00
2022-08-08T02:44:38.975Z,100.00
2022-08-08T02:47:03.666Z,100.00
2022-08-08T02:49:47.984Z,100.00
2022-08-08T02:52:40.063Z,100.00
2022-08-08T02:55:20.598Z,100.00
2022-08-08T02:58:15.045Z,100.00
2022-08-08T03:00:54.898Z,100.00
2022-08-08T03:05:05.251Z,100.00
2022-08-08T03:07:19.640Z,100.00
2022-08-08T03:10:05.517Z,100.00
2022-08-08T03:13:01.332Z,100.00
2022-08-08T03:15:58.111Z,100.00
2022-08-08T03:18:57.677Z,100.00
2022-08-08T03:21:26.960Z,100.00
2022-08-08T03:24:07.499Z,100.00
2022-08-08T03:26:43.129Z,100.00
2022-08-08T03:29:20.973Z,100.00
2022-08-08T03:32:28.981Z,100.00
2022-08-08T03:34:57.154Z,100.00
2022-08-08T03:38:54.565Z,100.00
2022-08-08T03:40:28.813Z,100.00
2022-08-08T03:42:58.776Z,100.00
2022-08-08T03:46:05.853Z,100.00
2022-08-08T03:49:09.024Z,100.00
2022-08-08T03:51:17.503Z,100.00
2022-08-08T03:53:47.650Z,100.00
2022-08-08T03:56:31.783Z,100.00
2022-08-08T03:58:59.366Z,100.00
2022-08-08T04:02:02.410Z,100.00
2022-08-08T04:04:30.734Z,100.00
2022-08-08T04:07:01.257Z,100.00
2022-08-08T04:10:02.882Z,100.00
2022-08-08T04:12:15.894Z,100.00
2022-08-08T04:14:46.089Z,100.00
2022-08-08T04:17:45.751Z,100.00
2022-08-08T04:20:05.936Z,100.00
2022-08-08T04:22:35.263Z,100.00
2022-08-08T04:25:02.487Z,100.00
2022-08-08T04:28:02.641Z,100.00
2022-08-08T04:30:18.081Z,100.00
2022-08-08T04:32:49.819Z,100.00
2022-08-08T04:35:20.137Z,100.00
2022-08-08T04:37:49.982Z,100.00
2022-08-08T04:40:18.365Z,100.00
2022-08-08T04:42:55.932Z,100.00
2022-08-08T04:45:23.972Z,100.00
2022-08-08T04:47:53.345Z,100.00
2022-08-08T04:50:24.409Z,100.00
2022-08-08T04:53:01.218Z,100.00
2022-08-08T04:55:47.762Z,100.00
2022-08-08T04:58:20.124Z,90.38
2022-08-08T05:00:49.961Z,81.57
2022-08-08T05:03:19.095Z,69.43
2022-08-08T05:06:12.713Z,59.63
2022-08-08T05:08:44.910Z,56.75
2022-08-08T05:11:24.218Z,52.04
2022-08-08T05:13:57.597Z,47.86
2022-08-08T05:16:51.794Z,45.16
2022-08-08T05:20:11.097Z,42.66
2022-08-08T05:22:07.010Z,44.65
2022-08-08T05:24:33.998Z,40.56
2022-08-08T05:27:00.832Z,38.06
2022-08-08T05:29:29.080Z,37.65
2022-08-08T05:32:03.147Z,38.74
2022-08-08T05:34:49.522Z,36.09
2022-08-08T05:37:52.504Z,34.97
2022-08-08T05:40:21.539Z,35.45
2022-08-08T05:43:01.784Z,34.11
2022-08-08T05:45:43.105Z,35.42
2022-08-08T05:48:28.831Z,34.24
2022-08-08T05:51:12.852Z,31.57
2022-08-08T05:54:25.574Z,34.17
2022-08-08T05:56:35.626Z,30.69
2022-08-08T05:59:12.400Z,30.59
2022-08-08T06:01:52.565Z,30.06
2022-08-08T06:04:28.083Z,33.36
2022-08-08T06:07:04.035Z,31.22
2022-08-08T06:09:58.099Z,30.38
2022-08-08T06:12:30.112Z,30.29
2022-08-08T06:15:01.067Z,28.01
2022-08-08T06:18:18.288Z,29.15
2022-08-08T06:20:20.899Z,28.40
2022-08-08T06:22:49.485Z,30.21
2022-08-08T06:25:18.298Z,30.03
2022-08-08T06:27:58.159Z,29.99
2022-08-08T06:30:28.275Z,28.36
2022-08-08T06:33:01.182Z,28.47
2022-08-08T06:36:07.523Z,26.07
2022-08-08T06:38:28.693Z,26.24
2022-08-08T06:41:06.302Z,26.99
2022-08-08T06:43:40.970Z,27.01
2022-08-08T06:46:16.299Z,25.95
2022-08-08T06:48:43.509Z,24.07
2022-08-08T06:51:16.863Z,26.05
2022-08-08T06:53:50.737Z,26.91
2022-08-08T06:56:23.982Z,28.90
2022-08-08T06:58:53.423Z,28.71
2022-08-08T07:02:26.553Z,28.93
2022-08-08T07:04:40.653Z,27.64
2022-08-08T07:07:21.535Z,28.25
2022-08-08T07:10:00.976Z,26.84
2022-08-08T07:12:41.128Z,26.51
2022-08-08T07:15:32.260Z,23.84
2022-08-08T07:18:35.919Z,25.76
2022-08-08T07:20:58.633Z,24.17
2022-08-08T07:24:02.228Z,28.10
2022-08-08T07:26:28.955Z,27.20
2022-08-08T07:29:05.288Z,28.84
2022-08-08T07:31:35.350Z,26.15
2022-08-08T07:34:08.850Z,28.99
2022-08-08T07:36:42.056Z,27.91
2022-08-08T07:39:29.616Z,27.80
2022-08-08T07:42:05.641Z,28.93
2022-08-08T07:44:40.744Z,26.25
2022-08-08T07:47:10.368Z,27.95
2022-08-08T07:49:39.940Z,28.86
2022-08-08T07:52:13.090Z,28.98
2022-08-08T07:54:51.309Z,27.08
2022-08-08T07:57:26.437Z,25.57
2022-08-08T07:59:54.360Z,26.74
2022-08-08T08:02:37.034Z,26.13
2022-08-08T08:05:15.082Z,28.65
2022-08-08T08:07:46.083Z,28.36
2022-08-08T08:10:30.748Z,29.09
2022-08-08T08:13:25.222Z,28.11
2022-08-08T08:16:17.180Z,28.37
2022-08-08T08:19:00.449Z,29.85
2022-08-08T08:21:35.447Z,29.45
2022-08-08T08:24:18.687Z,30.09
2022-08-08T08:26:52.542Z,30.13
2022-08-08T08:29:22.890Z,29.27
2022-08-08T08:31:57.717Z,29.38
2022-08-08T08:34:32.564Z,30.48
2022-08-08T08:37:03.518Z,29.25
2022-08-08T08:40:01.749Z,33.30
2022-08-08T08:42:31.693Z,31.45
2022-08-08T08:45:21.299Z,33.15
2022-08-08T08:47:53.540Z,34.57
2022-08-08T08:50:33.940Z,34.31
2022-08-08T08:53:27.432Z,34.47
2022-08-08T08:56:01.223Z,34.24
2022-08-08T08:58:39.879Z,33.07
2022-08-08T09:01:14.891Z,33.01
2022-08-08T09:03:51.420Z,34.44
2022-08-08T09:06:33.809Z,35.81
2022-08-08T09:09:25.989Z,34.54
2022-08-08T09:12:01.625Z,33.55
2022-08-08T09:14:34.027Z,33.50
2022-08-08T09:17:07.062Z,34.20
2022-08-08T09:21:56.792Z,36.52
2022-08-08T09:22:27.158Z,37.69
2022-08-08T09:24:58.665Z,35.72
2022-08-08T09:27:55.547Z,36.52
2022-08-08T09:30:19.831Z,35.76
2022-08-08T09:33:12.753Z,36.86
2022-08-08T09:35:49.596Z,39.00
2022-08-08T09:38:52.955Z,37.75
2022-08-08T09:41:54.730Z,40.79
2022-08-08T09:45:07.970Z,40.07
2022-08-08T09:48:04.710Z,39.16
2022-08-08T09:50:34.676Z,39.29
2022-08-08T09:53:23.715Z,40.75
2022-08-08T09:56:04.349Z,40.14
2022-08-08T09:58:45.487Z,40.03
2022-08-08T10:01:59.490Z,38.66
2022-08-08T10:04:22.396Z,41.30
2022-08-08T10:07:07.401Z,38.23
2022-08-08T10:09:35.805Z,39.36
2022-08-08T10:12:37.913Z,40.01
2022-08-08T10:15:18.159Z,39.07
2022-08-08T10:18:05.513Z,39.53
2022-08-08T10:20:57.297Z,37.88
2022-08-08T10:23:45.094Z,39.43
2022-08-08T10:26:52.141Z,38.81
2022-08-08T10:29:58.285Z,40.31
2022-08-08T10:32:39.158Z,39.48
2022-08-08T10:36:01.952Z,36.86
2022-08-08T10:38:05.649Z,37.59
2022-08-08T10:40:34.751Z,36.40
2022-08-08T10:43:04.094Z,39.15
2022-08-08T10:45:42.982Z,36.32
2022-08-08T10:48:55.991Z,36.06
2022-08-08T10:51:47.429Z,35.43
2022-08-08T10:54:21.169Z,34.63
2022-08-08T10:57:00.415Z,34.93
2022-08-08T10:59:30.890Z,37.20
2022-08-08T11:02:07.316Z,38.57
2022-08-08T11:04:45.268Z,36.28
2022-08-08T11:08:37.832Z,37.29
2022-08-08T11:10:28.662Z,35.82
2022-08-08T11:13:27.773Z,34.93
2022-08-08T11:15:58.820Z,39.30
2022-08-08T11:18:33.186Z,37.36
2022-08-08T11:21:08.989Z,35.32
2022-08-08T11:23:42.079Z,39.55
2022-08-08T11:26:19.163Z,39.29
2022-08-08T11:28:50.301Z,36.15
2022-08-08T11:31:17.596Z,37.43
2022-08-08T11:34:01.933Z,38.02
2022-08-08T11:36:33.313Z,36.51
2022-08-08T11:39:05.733Z,38.40
2022-08-08T11:41:39.115Z,38.86
2022-08-08T11:44:10.928Z,36.18
2022-08-08T11:46:40.065Z,35.85
2022-08-08T11:49:17.178Z,36.59
2022-08-08T11:51:50.065Z,34.13
2022-08-08T11:54:33.509Z,35.86
2022-08-08T11:57:24.010Z,36.36
2022-08-08T12:00:05.886Z,33.78
2022-08-08T12:02:47.337Z,37.41
2022-08-08T12:05:14.561Z,36.00
2022-08-08T12:07:49.539Z,36.93
2022-08-08T12:10:19.739Z,38.41
2022-08-08T12:12:48.887Z,38.17
2022-08-08T12:15:42.219Z,39.26
2022-08-08T12:18:14.664Z,40.17
2022-08-08T12:20:43.008Z,40.10
2022-08-08T12:23:13.777Z,39.05
2022-08-08T12:25:52.516Z,37.20
2022-08-08T12:28:21.946Z,37.64
2022-08-08T12:30:50.196Z,38.38
2022-08-08T12:33:37.793Z,40.24
2022-08-08T12:36:16.521Z,43.11
2022-08-08T12:38:55.287Z,41.73
2022-08-08T12:41:35.044Z,42.46
2022-08-08T12:44:12.555Z,43.02
2022-08-08T12:46:39.253Z,42.74
2022-08-08T12:49:29.578Z,43.11
2022-08-08T12:51:58.953Z,43.29
2022-08-08T12:54:40.776Z,42.96
2022-08-08T12:57:23.416Z,40.37
2022-08-08T13:00:03.508Z,41.26
2022-08-08T13:02:51.031Z,39.18
2022-08-08T13:05:26.652Z,40.39
2022-08-08T13:08:18.792Z,41.48
2022-08-08T13:10:55.562Z,43.58
2022-08-08T13:13:37.112Z,40.39
2022-08-08T13:16:21.756Z,42.83
2022-08-08T13:18:58.261Z,39.91
2022-08-08T13:21:36.389Z,41.51
2022-08-08T13:24:18.809Z,40.37
2022-08-08T13:27:11.996Z,38.15
2022-08-08T13:29:55.033Z,38.35
2022-08-08T13:32:25.663Z,41.88
2022-08-08T13:34:56.893Z,44.99
2022-08-08T13:37:28.120Z,45.29
2022-08-08T13:40:17.756Z,41.74
2022-08-08T13:42:45.333Z,40.69
2022-08-08T13:45:15.002Z,42.48
2022-08-08T13:47:41.877Z,38.09
2022-08-08T13:50:36.695Z,41.84
2022-08-08T13:53:22.951Z,36.15
2022-08-08T13:56:01.244Z,39.09
2022-08-08T13:58:30.201Z,38.25
2022-08-08T14:00:57.557Z,38.54
2022-08-08T14:03:52.308Z,41.68
2022-08-08T14:06:20.528Z,40.13
2022-08-08T14:09:24.837Z,40.90
2022-08-08T14:11:48.788Z,41.98
2022-08-08T14:14:20.708Z,37.47
2022-08-08T14:16:52.795Z,39.40
2022-08-08T14:19:57.275Z,37.16
2022-08-08T14:22:29.773Z,40.76
2022-08-08T14:25:02.529Z,37.62
2022-08-08T14:27:37.624Z,37.95
2022-08-08T14:30:18.960Z,39.55
2022-08-08T14:32:52.908Z,37.30
2022-08-08T14:35:35.770Z,37.53
2022-08-08T14:38:33.453Z,40.31
2022-08-08T14:40:59.549Z,41.07
2022-08-08T14:44:02.027Z,40.55
2022-08-08T14:46:30.860Z,40.13
2022-08-08T14:48:59.816Z,38.22
2022-08-08T14:51:47.119Z,39.01
2022-08-08T14:54:14.307Z,38.38
2022-08-08T14:56:55.258Z,39.27
2022-08-08T14:59:39.774Z,39.48
2022-08-08T15:02:10.887Z,38.36
2022-08-08T15:04:42.286Z,37.26
2022-08-08T15:07:22.291Z,38.69
2022-08-08T15:09:49.678Z,39.63
2022-08-08T15:12:34.680Z,38.70
2022-08-08T15:15:06.809Z,39.61
2022-08-08T15:17:37.421Z,38.25
2022-08-08T15:20:08.399Z,39.38
2022-08-08T15:22:40.388Z,39.13
2022-08-08T15:25:17.320Z,39.99
2022-08-08T15:28:04.778Z,39.69
2022-08-08T15:30:35.236Z,42.00
2022-08-08T15:33:01.941Z,40.31
2022-08-08T15:35:28.956Z,40.45
2022-08-08T15:38:09.813Z,42.22
2022-08-08T15:40:39.865Z,41.43
2022-08-08T15:43:34.850Z,43.29
2022-08-08T15:45:57.856Z,41.81
2022-08-08T15:48:24.533Z,41.23
2022-08-08T15:51:02.058Z,43.71
2022-08-08T15:53:33.187Z,44.38
2022-08-08T15:56:12.715Z,42.35
2022-08-08T15:58:48.629Z,41.53
2022-08-08T16:01:17.006Z,42.96
2022-08-08T16:03:48.025Z,47.28
2022-08-08T16:06:28.794Z,42.21
2022-08-08T16:13:00.290Z,41.90
2022-08-08T16:13:05.464Z,39.44
2022-08-08T16:14:34.891Z,42.33
2022-08-08T16:17:02.122Z,44.61
2022-08-08T16:19:59.997Z,43.25
2022-08-08T16:22:30.463Z,41.50
2022-08-08T16:24:58.340Z,40.74
2022-08-08T16:27:25.082Z,42.49
2022-08-08T16:30:08.387Z,44.32
2022-08-08T16:32:40.459Z,43.37
2022-08-08T16:35:08.481Z,42.25
2022-08-08T16:37:35.340Z,42.48
2022-08-08T16:40:03.822Z,43.63
2022-08-08T16:42:31.290Z,43.91
2022-08-08T16:45:11.443Z,43.35
2022-08-08T16:47:52.334Z,43.05
2022-08-08T16:50:20.276Z,45.30
2022-08-08T16:54:59.760Z,43.26
2022-08-08T16:55:55.215Z,43.68
2022-08-08T16:58:26.434Z,44.02
2022-08-08T17:00:55.102Z,44.77
2022-08-08T17:03:25.118Z,46.30
2022-08-08T17:06:36.402Z,45.82
2022-08-08T17:08:57.004Z,45.11
2022-08-08T17:11:28.409Z,47.35
2022-08-08T17:14:05.999Z,44.70
2022-08-08T17:16:51.912Z,46.20
2022-08-08T17:19:26.920Z,44.78
2022-08-08T17:21:54.571Z,47.97
2022-08-08T17:24:29.849Z,46.24
2022-08-08T17:26:59.324Z,44.28
2022-08-08T17:29:27.633Z,43.59
2022-08-08T17:31:57.604Z,44.34
2022-08-08T17:34:36.088Z,45.02
2022-08-08T17:37:11.095Z,44.37
2022-08-08T17:40:04.568Z,44.97
2022-08-08T17:42:25.544Z,45.81
2022-08-08T17:44:53.263Z,46.94
2022-08-08T17:47:27.338Z,45.96
2022-08-08T17:50:01.328Z,45.89
2022-08-08T17:52:30.098Z,44.97
2022-08-08T17:54:57.683Z,45.44
2022-08-08T17:57:28.955Z,45.93
2022-08-08T18:00:10.335Z,44.08
2022-08-08T18:03:02.099Z,42.89
2022-08-08T18:05:49.799Z,44.63
2022-08-08T18:08:38.238Z,43.26
2022-08-08T18:11:22.965Z,46.23
2022-08-08T18:13:49.845Z,44.97
2022-08-08T18:16:23.431Z,50.19
2022-08-08T18:18:57.609Z,47.38
2022-08-08T18:21:59.818Z,46.22
2022-08-08T18:24:21.569Z,51.33
2022-08-08T18:26:54.671Z,51.36
2022-08-08T18:29:29.750Z,48.31
2022-08-08T18:32:03.283Z,50.74
2022-08-08T18:34:34.192Z,52.58
2022-08-08T18:37:08.192Z,53.50
2022-08-08T18:39:37.670Z,54.90
2022-08-08T18:42:11.594Z,58.52
2022-08-08T18:44:42.052Z,62.26
2022-08-08T18:47:08.820Z,66.91
2022-08-08T18:49:54.769Z,70.27
2022-08-08T18:52:23.801Z,72.80
2022-08-08T18:55:00.714Z,72.87
2022-08-08T18:57:41.939Z,77.86
2022-08-08T19:00:16.900Z,74.99
2022-08-08T19:02:55.291Z,77.23
2022-08-08T19:05:34.209Z,81.72
2022-08-08T19:08:24.358Z,80.99
2022-08-08T19:10:55.717Z,79.86
2022-08-08T19:13:24.469Z,83.05
2022-08-08T19:15:55.848Z,81.75
2022-08-08T19:18:32.243Z,84.55
2022-08-08T19:21:28.935Z,85.44
2022-08-08T19:23:58.128Z,88.32
2022-08-08T19:26:29.589Z,86.88
2022-08-08T19:29:01.654Z,90.38
2022-08-08T19:31:31.481Z,91.32
2022-08-08T19:34:29.567Z,88.37
2022-08-08T19:36:58.460Z,91.93
2022-08-08T19:39:30.717Z,92.84
2022-08-08T19:42:03.358Z,95.92
2022-08-08T19:44:42.439Z,97.59
2022-08-08T19:47:12.480Z,94.20
2022-08-08T19:49:39.889Z,91.65
2022-08-08T19:52:13.412Z,96.65
2022-08-08T19:54:40.515Z,90.18
2022-08-08T19:57:10.033Z,93.52
2022-08-08T19:59:41.352Z,95.11
2022-08-08T20:02:10.569Z,100.00
2022-08-08T20:04:38.059Z,100.00
2022-08-08T20:08:28.869Z,98.59
2022-08-08T20:09:58.653Z,100.00
2022-08-08T20:12:32.955Z,100.00
2022-08-08T20:15:16.875Z,100.00
2022-08-08T20:17:46.533Z,100.00
2022-08-08T20:20:18.921Z,100.00
2022-08-08T20:22:48.945Z,100.00
2022-08-08T20:25:21.287Z,100.00
2022-08-08T20:27:54.174Z,100.00
2022-08-08T20:30:53.310Z,100.00
2022-08-08T20:33:19.759Z,100.00
2022-08-08T20:35:57.966Z,100.00
2022-08-08T20:38:32.203Z,100.00
2022-08-08T20:41:12.078Z,100.00
2022-08-08T20:43:48.205Z,100.00
2022-08-08T20:46:16.226Z,100.00
2022-08-08T20:48:44.328Z,100.00
2022-08-08T20:51:11.704Z,100.00
2022-08-08T20:54:00.591Z,100.00
2022-08-08T20:56:36.077Z,100.00
2022-08-08T20:59:18.710Z,100.00
2022-08-08T21:02:06.383Z,100.00
2022-08-08T21:04:35.631Z,100.00
2022-08-08T21:07:04.955Z,100.00
2022-08-08T21:09:48.721Z,100.00
2022-08-08T21:12:24.871Z,100.00
2022-08-08T21:14:59.191Z,100.00
2022-08-08T21:17:34.203Z,100.00
2022-08-08T21:20:03.800Z,100.00
2022-08-08T21:22:30.784Z,100.00
2022-08-08T21:24:58.273Z,100.00
2022-08-08T21:28:05.301Z,100.00
2022-08-08T21:30:18.970Z,100.00
2022-08-08T21:32:51.766Z,100.00
2022-08-08T21:36:14.716Z,100.00
2022-08-08T21:38:16.419Z,100.00
2022-08-08T21:40:54.816Z,100.00
2022-08-08T21:43:22.172Z,100.00
2022-08-08T21:48:07.244Z,100.00
2022-08-08T21:48:44.834Z,100.00
2022-08-08T21:51:45.877Z,100.00
2022-08-08T21:54:34.186Z,100.00
2022-08-08T21:56:54.180Z,100.00
2022-08-08T21:59:21.245Z,100.00
2022-08-08T22:01:51.933Z,100.00
2022-08-08T22:04:24.805Z,100.00
2022-08-08T22:06:52.832Z,100.00
2022-08-08T22:09:19.666Z,100.00
2022-08-08T22:12:02.238Z,100.00
2022-08-08T22:14:34.144Z,100.00
2022-08-08T22:17:01.472Z,100.00
2022-08-08T22:19:29.926Z,100.00
2022-08-08T22:22:16.527Z,100.00
2022-08-08T22:24:47.629Z,100.00
2022-08-08T22:27:15.073Z,100.00
2022-08-08T22:30:01.943Z,100.00
2022-08-08T22:32:29.741Z,100.00
2022-08-08T22:34:58.120Z,100.00
2022-08-08T22:37:48.780Z,100.00
2022-08-08T22:40:16.821Z,100.00
2022-08-08T22:42:47.400Z,100.00
2022-08-08T22:45:15.203Z,100.00
2022-08-08T22:47:46.851Z,100.00
2022-08-08T22:50:26.411Z,100.00
2022-08-08T22:53:01.547Z,100.00
2022-08-08T22:55:57.675Z,100.00
2022-08-08T22:58:34.078Z,100.00
2022-08-08T23:01:30.247Z,100.00
2022-08-08T23:03:57.160Z,100.00
2022-08-08T23:06:29.682Z,100.00
2022-08-08T23:08:58.539Z,100.00
2022-08-08T23:12:27.743Z,100.00
2022-08-08T23:14:21.131Z,100.00
2022-08-08T23:16:57.712Z,100.00
2022-08-08T23:19:31.058Z,100.00
2022-08-08T23:22:06.953Z,100.00
2022-08-08T23:24:41.177Z,100.00
2022-08-08T23:27:11.149Z,100.00
2022-08-08T23:29:55.974Z,100.00
2022-08-08T23:32:23.156Z,100.00
2022-08-08T23:34:58.710Z,100.00
2022-08-08T23:37:26.839Z,100.00
2022-08-08T23:40:14.175Z,100.00
2022-08-08T23:42:41.079Z,100.00
2022-08-08T23:45:12.657Z,100.00
2022-08-08T23:49:06.165Z,100.00
2022-08-08T23:50:30.524Z,100.00
2022-08-08T23:52:58.586Z,100.00
2022-08-08T23:55:31.993Z,100.00
2022-08-08T23:58:01.751Z,100.00
